KCRE/CRE METAR and TAF weather

Enter ICAO airport designator
Station Type Date Time Source
KCRE METAR 2020/04/06 15:53 UTC NOAA

KCRE 061553Z 24009G15KT 10SM CLR 25/13 A3011 RMK AO1 SLP198 T02500128


Station Type Date Time Source
KCRE Decoded METAR 2020/04/06 15:53 UTC NOAA

N. MYRTLE BCH.GRAND STRAND, SC, United States (KCRE) 33-49N 078-43W 10M
Apr 06, 2020 - 11:53 AM EDT / 2020.04.06 1553 UTC
Wind: from the WSW (240 degrees) at 10 MPH (9 KT) gusting to 17 MPH (15 KT):0
Visibility: 10 mile(s):0
Sky conditions: clear
Temperature: 77.0 F (25.0 C)
Dew Point: 55.0 F (12.8 C)
Relative Humidity: 46%
Pressure (altimeter): 30.11 in. Hg (1019 hPa)
ob: KCRE 061553Z 24009G15KT 10SM CLR 25/13 A3011 RMK AO1 SLP198 T02500128
cycle: 16

Station Type Date Time Source
KCRE TAF 2020/04/06 12:22 UTC NOAA

TAF KCRE 061120Z 0612/0712 VRB03KT P6SM FEW100
FM061500 21011KT P6SM FEW070
FM062300 23010KT P6SM VCTS SCT050CB
FM070600 23005KT 6SM BR BKN250

Example: see airport list